createdAt,value
2018-09-08T00:00:49.487Z,0
2018-09-08T00:01:59.333Z,0
2018-09-08T00:03:08.895Z,0
2018-09-08T00:04:18.732Z,0
2018-09-08T00:05:28.574Z,0
2018-09-08T00:06:38.742Z,0
2018-09-08T00:07:48.577Z,0
2018-09-08T00:08:57.878Z,0
2018-09-08T00:10:07.719Z,0
2018-09-08T00:11:17.559Z,0
2018-09-08T00:12:27.130Z,0
2018-09-08T00:13:37.242Z,0
2018-09-08T00:14:46.817Z,0
2018-09-08T00:15:56.660Z,0
2018-09-08T00:17:06.770Z,0
2018-09-08T00:18:16.609Z,0
2018-09-08T00:19:25.910Z,0
2018-09-08T00:20:35.214Z,0
2018-09-08T00:21:45.045Z,0
2018-09-08T00:22:54.850Z,0
2018-09-08T00:24:04.735Z,0
2018-09-08T00:25:14.304Z,0
2018-09-08T00:26:24.154Z,0
2018-09-08T00:27:33.990Z,0
2018-09-08T00:28:44.096Z,0
2018-09-08T00:29:53.986Z,0
2018-09-08T00:31:03.560Z,0
2018-09-08T00:32:13.396Z,0
2018-09-08T00:33:23.012Z,0
2018-09-08T00:34:32.044Z,0
2018-09-08T00:35:42.160Z,0
2018-09-08T00:36:51.999Z,0
2018-09-08T00:38:01.565Z,0
2018-09-08T00:39:10.864Z,0
2018-09-08T00:40:20.224Z,0
2018-09-08T00:41:29.824Z,0
2018-09-08T00:42:39.396Z,0
2018-09-08T00:43:49.241Z,0
2018-09-08T00:44:58.540Z,0
2018-09-08T00:46:08.288Z,0
2018-09-08T00:47:18.128Z,0
2018-09-08T00:48:27.692Z,0
2018-09-08T00:49:37.021Z,0
2018-09-08T00:50:46.626Z,0
2018-09-08T00:51:56.210Z,0
2018-09-08T00:53:06.325Z,0
2018-09-08T00:54:15.900Z,0
2018-09-08T00:55:26.006Z,0
2018-09-08T00:56:35.572Z,0
2018-09-08T00:57:45.139Z,0
2018-09-08T00:58:54.703Z,0
2018-09-08T01:00:03.736Z,0
2018-09-08T01:01:13.301Z,0
2018-09-08T01:02:23.138Z,0
2018-09-08T01:03:32.440Z,0
2018-09-08T01:04:42.595Z,0
2018-09-08T01:05:51.628Z,0
2018-09-08T01:07:01.742Z,0
2018-09-08T01:08:11.048Z,0
2018-09-08T01:09:20.909Z,0
2018-09-08T01:10:31.030Z,0
2018-09-08T01:11:40.872Z,0
2018-09-08T01:12:50.975Z,0
2018-09-08T01:14:00.814Z,0
2018-09-08T01:15:10.118Z,0
2018-09-08T01:16:19.683Z,0
2018-09-08T01:17:29.250Z,0
2018-09-08T01:18:39.093Z,0
2018-09-08T01:19:49.252Z,0
2018-09-08T01:20:59.085Z,0
2018-09-08T01:22:08.657Z,0
2018-09-08T01:23:18.802Z,0
2018-09-08T01:24:28.638Z,0
2018-09-08T01:25:38.211Z,0
2018-09-08T01:26:48.050Z,0
2018-09-08T01:27:57.890Z,0
2018-09-08T01:29:07.733Z,0
2018-09-08T01:30:17.842Z,0
2018-09-08T01:31:27.405Z,0
2018-09-08T01:32:36.979Z,0
2018-09-08T01:33:46.815Z,0
2018-09-08T01:34:56.924Z,0
2018-09-08T01:36:06.222Z,0
2018-09-08T01:37:16.058Z,0
2018-09-08T01:38:26.166Z,0
2018-09-08T01:39:36.035Z,0
2018-09-08T01:40:45.869Z,0
2018-09-08T01:41:55.751Z,0
2018-09-08T01:43:04.780Z,0
2018-09-08T01:44:15.096Z,0
2018-09-08T01:45:24.127Z,0
2018-09-08T01:46:33.968Z,0
2018-09-08T01:47:43.585Z,0
2018-09-08T01:48:52.893Z,0
2018-09-08T01:50:02.786Z,0
2018-09-08T01:51:12.143Z,0
2018-09-08T01:52:21.983Z,0
2018-09-08T01:53:32.091Z,0
2018-09-08T01:54:42.162Z,0
2018-09-08T01:55:51.998Z,0
2018-09-08T01:57:01.835Z,0
2018-09-08T01:58:11.405Z,0
2018-09-08T01:59:20.970Z,0
2018-09-08T02:00:31.082Z,0
2018-09-08T02:01:40.648Z,0
2018-09-08T02:02:49.980Z,0
2018-09-08T02:03:59.584Z,0
2018-09-08T02:05:09.423Z,0
2018-09-08T02:06:18.999Z,0
2018-09-08T02:07:28.561Z,0
2018-09-08T02:08:37.859Z,0
2018-09-08T02:09:47.704Z,0
2018-09-08T02:10:57.568Z,0
2018-09-08T02:12:07.407Z,0
2018-09-08T02:13:16.971Z,0
2018-09-08T02:14:26.538Z,0
2018-09-08T02:15:36.106Z,0
2018-09-08T02:16:45.954Z,0
2018-09-08T02:17:55.257Z,0
2018-09-08T02:19:05.101Z,0
2018-09-08T02:20:14.719Z,0
2018-09-08T02:21:24.591Z,0
2018-09-08T02:22:34.441Z,0
2018-09-08T02:23:43.737Z,0
2018-09-08T02:24:53.587Z,0
2018-09-08T02:26:03.703Z,0
2018-09-08T02:27:13.816Z,0
2018-09-08T02:28:23.382Z,0
2018-09-08T02:29:32.958Z,0
2018-09-08T02:30:42.529Z,0
2018-09-08T02:31:52.110Z,0
2018-09-08T02:33:01.967Z,0
2018-09-08T02:34:11.262Z,0
2018-09-08T02:35:21.369Z,0
2018-09-08T02:36:30.945Z,0
2018-09-08T02:37:40.778Z,0
2018-09-08T02:38:50.621Z,0
2018-09-08T02:40:00.212Z,0
2018-09-08T02:41:09.949Z,0
2018-09-08T02:42:19.520Z,0
2018-09-08T02:43:29.134Z,0
2018-09-08T02:44:38.715Z,0
2018-09-08T02:45:48.560Z,0
2018-09-08T02:46:57.590Z,0
2018-09-08T02:48:07.160Z,0
2018-09-08T02:49:16.782Z,0
2018-09-08T02:50:26.959Z,0
2018-09-08T02:51:36.537Z,0
2018-09-08T02:52:45.844Z,0
2018-09-08T02:53:55.686Z,0
2018-09-08T02:55:05.525Z,0
2018-09-08T02:56:15.092Z,0
2018-09-08T02:57:24.931Z,0
2018-09-08T02:58:34.776Z,0
2018-09-08T02:59:44.650Z,0
2018-09-08T03:00:54.499Z,0
2018-09-08T03:02:04.071Z,0
2018-09-08T03:03:13.912Z,0
2018-09-08T03:04:23.752Z,0
2018-09-08T03:05:33.626Z,0
2018-09-08T03:06:43.244Z,0
2018-09-08T03:07:52.827Z,0
2018-09-08T03:09:02.396Z,0
2018-09-08T03:10:11.701Z,0
2018-09-08T03:11:21.282Z,0
2018-09-08T03:12:31.180Z,0
2018-09-08T03:13:40.758Z,0
2018-09-08T03:14:49.781Z,0
2018-09-08T03:15:59.089Z,0
2018-09-08T03:17:08.654Z,0
2018-09-08T03:18:17.949Z,0
2018-09-08T03:19:28.063Z,0
2018-09-08T03:20:37.630Z,0
2018-09-08T03:21:46.929Z,0
2018-09-08T03:22:56.776Z,0
2018-09-08T03:24:06.634Z,0
2018-09-08T03:25:16.524Z,0
2018-09-08T03:26:26.362Z,0
2018-09-08T03:27:35.928Z,0
2018-09-08T03:28:45.816Z,0
2018-09-08T03:29:55.969Z,0
2018-09-08T03:31:05.558Z,0
2018-09-08T03:32:15.670Z,0
2018-09-08T03:33:25.506Z,0
2018-09-08T03:34:34.539Z,0
2018-09-08T03:35:44.643Z,0
2018-09-08T03:36:54.756Z,0
2018-09-08T03:38:04.325Z,0
2018-09-08T03:39:14.170Z,0
2018-09-08T03:40:24.273Z,0
2018-09-08T03:41:33.842Z,0
2018-09-08T03:42:43.684Z,0
2018-09-08T03:43:53.247Z,0
2018-09-08T03:45:02.814Z,0
2018-09-08T03:46:12.108Z,0
2018-09-08T03:47:21.726Z,0
2018-09-08T03:48:31.298Z,0
2018-09-08T03:49:41.134Z,0
2018-09-08T03:50:51.254Z,0
2018-09-08T03:52:01.105Z,0
2018-09-08T03:53:10.961Z,0
2018-09-08T03:54:20.795Z,0
2018-09-08T03:55:30.897Z,0
2018-09-08T03:56:41.013Z,0
2018-09-08T03:57:50.326Z,0
2018-09-08T03:59:00.093Z,0
2018-09-08T04:00:10.222Z,0
2018-09-08T04:01:19.521Z,0
2018-09-08T04:02:29.630Z,0
2018-09-08T04:03:39.474Z,0
2018-09-08T04:04:49.314Z,0
2018-09-08T04:05:58.883Z,0
2018-09-08T04:07:08.466Z,0
2018-09-08T04:08:18.580Z,0
2018-09-08T04:09:28.154Z,0
2018-09-08T04:10:38.258Z,0
2018-09-08T04:11:48.101Z,0
2018-09-08T04:12:57.994Z,0
2018-09-08T04:14:07.345Z,0
2018-09-08T04:15:16.909Z,0
2018-09-08T04:16:26.807Z,0
2018-09-08T04:17:36.702Z,0
2018-09-08T04:18:46.005Z,0
2018-09-08T04:19:55.865Z,0
2018-09-08T04:21:05.714Z,0
2018-09-08T04:22:15.548Z,0
2018-09-08T04:23:25.661Z,0
2018-09-08T04:24:35.221Z,0
2018-09-08T04:25:45.057Z,0
2018-09-08T04:26:54.353Z,0
2018-09-08T04:28:04.467Z,0
2018-09-08T04:29:14.306Z,0
2018-09-08T04:30:23.898Z,0
2018-09-08T04:31:34.033Z,0
2018-09-08T04:32:44.169Z,0
2018-09-08T04:33:53.778Z,0
2018-09-08T04:35:03.622Z,0
2018-09-08T04:36:13.742Z,0
2018-09-08T04:37:23.578Z,0
2018-09-08T04:38:33.420Z,0
2018-09-08T04:39:43.530Z,5
2018-09-08T04:40:53.231Z,5
2018-09-08T04:42:03.088Z,5
2018-09-08T04:43:12.934Z,5
2018-09-08T04:44:22.496Z,5
2018-09-08T04:45:32.119Z,5
2018-09-08T04:46:41.968Z,10
2018-09-08T04:47:51.552Z,10
2018-09-08T04:49:01.165Z,10
2018-09-08T04:50:10.735Z,10
2018-09-08T04:51:20.348Z,10
2018-09-08T04:52:30.466Z,15
2018-09-08T04:53:39.764Z,15
2018-09-08T04:54:49.331Z,15
2018-09-08T04:55:58.912Z,15
2018-09-08T04:57:09.029Z,20
2018-09-08T04:58:18.596Z,20
2018-09-08T04:59:28.167Z,20
2018-09-08T05:00:37.197Z,25
2018-09-08T05:01:46.779Z,25
2018-09-08T05:02:56.674Z,25
2018-09-08T05:04:06.248Z,30
2018-09-08T05:05:15.817Z,30
2018-09-08T05:06:25.932Z,30
2018-09-08T05:07:35.237Z,35
2018-09-08T05:08:44.797Z,35
2018-09-08T05:09:54.903Z,35
2018-09-08T05:11:04.783Z,35
2018-09-08T05:12:14.619Z,40
2018-09-08T05:13:24.728Z,40
2018-09-08T05:14:33.781Z,45
2018-09-08T05:15:43.636Z,45
2018-09-08T05:16:53.481Z,45
2018-09-08T05:18:03.328Z,45
2018-09-08T05:19:12.361Z,45
2018-09-08T05:20:21.962Z,40
2018-09-08T05:21:31.545Z,45
2018-09-08T05:22:41.115Z,45
2018-09-08T05:23:50.690Z,45
2018-09-08T05:25:00.526Z,50
2018-09-08T05:26:10.102Z,55
2018-09-08T05:27:19.670Z,60
2018-09-08T05:28:29.569Z,60
2018-09-08T05:29:39.412Z,65
2018-09-08T05:30:49.519Z,70
2018-09-08T05:31:59.631Z,70
2018-09-08T05:33:09.476Z,70
2018-09-08T05:34:18.791Z,70
2018-09-08T05:35:28.904Z,75
2018-09-08T05:36:38.477Z,75
2018-09-08T05:37:47.776Z,80
2018-09-08T05:38:57.342Z,85
2018-09-08T05:40:06.913Z,85
2018-09-08T05:41:16.510Z,85
2018-09-08T05:42:26.076Z,85
2018-09-08T05:43:35.430Z,85
2018-09-08T05:44:45.266Z,90
2018-09-08T05:45:54.568Z,95
2018-09-08T05:47:04.412Z,95
2018-09-08T05:48:13.981Z,100
2018-09-08T05:49:23.009Z,100
2018-09-08T05:50:32.872Z,95
2018-09-08T05:51:42.748Z,95
2018-09-08T05:52:52.318Z,100
2018-09-08T05:54:02.156Z,105
2018-09-08T05:55:12.323Z,105
2018-09-08T05:56:22.436Z,110
2018-09-08T05:57:32.279Z,115
2018-09-08T05:58:42.258Z,115
2018-09-08T05:59:52.095Z,120
2018-09-08T06:01:02.001Z,125
2018-09-08T06:02:11.848Z,130
2018-09-08T06:03:21.960Z,135
2018-09-08T06:04:31.537Z,140
2018-09-08T06:05:41.106Z,135
2018-09-08T06:06:50.954Z,125
2018-09-08T06:08:00.253Z,135
2018-09-08T06:09:09.827Z,145
2018-09-08T06:10:20.356Z,135
2018-09-08T06:11:29.990Z,135
2018-09-08T06:12:39.584Z,130
2018-09-08T06:13:49.421Z,120
2018-09-08T06:14:59.531Z,110
2018-09-08T06:16:09.635Z,110
2018-09-08T06:17:18.675Z,110
2018-09-08T06:18:28.843Z,115
2018-09-08T06:19:39.183Z,115
2018-09-08T06:20:49.037Z,120
2018-09-08T06:21:59.149Z,120
2018-09-08T06:23:08.997Z,125
2018-09-08T06:24:18.650Z,130
2018-09-08T06:25:28.652Z,135
2018-09-08T06:26:38.230Z,140
2018-09-08T06:27:48.073Z,145
2018-09-08T06:28:57.650Z,150
2018-09-08T06:30:07.497Z,150
2018-09-08T06:31:17.343Z,160
2018-09-08T06:32:27.455Z,165
2018-09-08T06:33:38.012Z,175
2018-09-08T06:34:47.842Z,185
2018-09-08T06:35:57.152Z,190
2018-09-08T06:37:06.456Z,190
2018-09-08T06:38:16.035Z,185
2018-09-08T06:39:25.634Z,185
2018-09-08T06:40:34.933Z,180
2018-09-08T06:41:45.049Z,180
2018-09-08T06:42:54.617Z,185
2018-09-08T06:44:04.223Z,185
2018-09-08T06:45:15.089Z,185
2018-09-08T06:46:24.728Z,175
2018-09-08T06:47:34.298Z,170
2018-09-08T06:48:44.138Z,170
2018-09-08T06:49:53.979Z,165
2018-09-08T06:51:03.821Z,160
2018-09-08T06:52:13.515Z,160
2018-09-08T06:53:23.364Z,150
2018-09-08T06:54:33.204Z,150
2018-09-08T06:55:42.501Z,145
2018-09-08T06:56:52.356Z,150
2018-09-08T06:58:02.350Z,140
2018-09-08T06:59:12.220Z,145
2018-09-08T07:00:22.060Z,140
2018-09-08T07:01:32.173Z,145
2018-09-08T07:02:42.018Z,150
2018-09-08T07:03:51.590Z,150
2018-09-08T07:05:01.162Z,150
2018-09-08T07:06:11.015Z,150
2018-09-08T07:07:20.331Z,150
2018-09-08T07:08:30.176Z,155
2018-09-08T07:09:40.015Z,155
2018-09-08T07:10:49.583Z,160
2018-09-08T07:11:59.422Z,160
2018-09-08T07:13:09.267Z,160
2018-09-08T07:14:19.381Z,160
2018-09-08T07:15:29.400Z,155
2018-09-08T07:16:39.286Z,150
2018-09-08T07:17:49.135Z,150
2018-09-08T07:18:58.982Z,150
2018-09-08T07:20:08.822Z,150
2018-09-08T07:21:18.124Z,150
2018-09-08T07:22:27.963Z,150
2018-09-08T07:23:37.533Z,150
2018-09-08T07:24:47.496Z,150
2018-09-08T07:25:57.339Z,150
2018-09-08T07:27:07.179Z,150
2018-09-08T07:28:17.022Z,150
2018-09-08T07:29:26.600Z,150
2018-09-08T07:30:35.625Z,150
2018-09-08T07:31:44.925Z,155
2018-09-08T07:32:54.802Z,155
2018-09-08T07:34:04.910Z,155
2018-09-08T07:35:14.490Z,155
2018-09-08T07:36:24.601Z,155
2018-09-08T07:37:34.790Z,155
2018-09-08T07:38:44.636Z,155
2018-09-08T07:39:54.201Z,155
2018-09-08T07:41:03.500Z,155
2018-09-08T07:42:13.345Z,155
2018-09-08T07:43:23.237Z,155
2018-09-08T07:44:33.352Z,155
2018-09-08T07:45:43.462Z,160
2018-09-08T07:46:53.301Z,160
2018-09-08T07:48:03.155Z,160
2018-09-08T07:49:12.738Z,160
2018-09-08T07:50:22.315Z,160
2018-09-08T07:51:32.184Z,160
2018-09-08T07:52:41.754Z,160
2018-09-08T07:53:52.512Z,160
2018-09-08T07:55:02.092Z,160
2018-09-08T07:56:11.947Z,155
2018-09-08T07:57:21.586Z,165
2018-09-08T07:58:30.879Z,165
2018-09-08T07:59:40.184Z,165
2018-09-08T08:00:49.758Z,165
2018-09-08T08:01:59.069Z,165
2018-09-08T08:03:09.245Z,165
2018-09-08T08:04:19.139Z,165
2018-09-08T08:05:28.998Z,165
2018-09-08T08:06:38.693Z,165
2018-09-08T08:07:48.557Z,165
2018-09-08T08:08:58.179Z,165
2018-09-08T08:10:08.019Z,170
2018-09-08T08:11:17.597Z,170
2018-09-08T08:12:27.439Z,170
2018-09-08T08:13:37.010Z,170
2018-09-08T08:14:46.785Z,170
2018-09-08T08:15:56.663Z,165
2018-09-08T08:17:06.238Z,165
2018-09-08T08:18:16.390Z,165
2018-09-08T08:19:25.691Z,165
2018-09-08T08:20:35.016Z,165
2018-09-08T08:21:44.319Z,165
2018-09-08T08:22:53.348Z,165
2018-09-08T08:24:02.654Z,170
2018-09-08T08:25:11.968Z,170
2018-09-08T08:26:21.585Z,170
2018-09-08T08:27:31.726Z,170
2018-09-08T08:28:41.568Z,170
2018-09-08T08:29:50.869Z,170
2018-09-08T08:31:00.497Z,170
2018-09-08T08:32:10.294Z,170
2018-09-08T08:33:20.131Z,170
2018-09-08T08:34:29.979Z,170
2018-09-08T08:35:39.011Z,180
2018-09-08T08:36:49.121Z,180
2018-09-08T08:37:58.745Z,175
2018-09-08T08:39:08.583Z,175
2018-09-08T08:40:18.425Z,170
2018-09-08T08:41:27.991Z,175
2018-09-08T08:42:37.838Z,175
2018-09-08T08:43:47.421Z,175
2018-09-08T08:44:56.998Z,175
2018-09-08T08:46:06.568Z,175
2018-09-08T08:47:16.413Z,175
2018-09-08T08:48:26.531Z,180
2018-09-08T08:49:36.111Z,180
2018-09-08T08:50:46.227Z,180
2018-09-08T08:51:55.259Z,180
2018-09-08T08:53:05.109Z,180
2018-09-08T08:54:14.955Z,180
2018-09-08T08:55:24.814Z,180
2018-09-08T08:56:34.658Z,185
2018-09-08T08:57:44.503Z,185
2018-09-08T08:58:53.823Z,185
2018-09-08T09:00:03.674Z,185
2018-09-08T09:01:13.786Z,185
2018-09-08T09:02:23.632Z,190
2018-09-08T09:03:33.684Z,190
2018-09-08T09:04:43.528Z,190
2018-09-08T09:05:53.371Z,190
2018-09-08T09:07:04.597Z,190
2018-09-08T09:08:14.128Z,190
2018-09-08T09:09:23.854Z,185
2018-09-08T09:10:33.695Z,190
2018-09-08T09:11:43.158Z,190
2018-09-08T09:12:53.652Z,190
2018-09-08T09:14:03.422Z,195
2018-09-08T09:15:16.387Z,210
2018-09-08T09:16:26.660Z,205
2018-09-08T09:17:35.961Z,205
2018-09-08T09:18:47.328Z,200
2018-09-08T09:19:57.048Z,200
2018-09-08T09:21:06.080Z,205
2018-09-08T09:22:15.926Z,210
2018-09-08T09:23:26.645Z,200
2018-09-08T09:24:38.767Z,195
2018-09-08T09:25:49.069Z,200
2018-09-08T09:26:59.195Z,200
2018-09-08T09:28:09.048Z,205
2018-09-08T09:29:18.894Z,205
2018-09-08T09:30:28.751Z,210
2018-09-08T09:31:38.057Z,220
2018-09-08T09:32:47.903Z,225
2018-09-08T09:33:58.038Z,240
2018-09-08T09:35:07.894Z,260
2018-09-08T09:36:17.792Z,225
2018-09-08T09:37:27.603Z,230
2018-09-08T09:38:37.503Z,230
2018-09-08T09:39:47.081Z,235
2018-09-08T09:40:56.661Z,235
2018-09-08T09:42:06.782Z,240
2018-09-08T09:43:16.627Z,245
2018-09-08T09:44:26.471Z,230
2018-09-08T09:45:36.314Z,250
2018-09-08T09:46:46.152Z,250
2018-09-08T09:47:55.787Z,270
2018-09-08T09:49:05.637Z,305
2018-09-08T09:50:15.483Z,310
2018-09-08T09:51:24.790Z,335
2018-09-08T09:52:34.906Z,350
2018-09-08T09:53:44.819Z,355
2018-09-08T09:54:54.126Z,365
2018-09-08T09:56:03.773Z,370
2018-09-08T09:57:13.088Z,380
2018-09-08T09:58:23.232Z,385
2018-09-08T09:59:33.078Z,405
2018-09-08T10:00:42.921Z,415
2018-09-08T10:01:52.436Z,435
2018-09-08T10:03:01.735Z,450
2018-09-08T10:04:11.040Z,480
2018-09-08T10:05:20.612Z,505
2018-09-08T10:06:30.735Z,525
2018-09-08T10:07:40.112Z,530
2018-09-08T10:08:50.221Z,540
2018-09-08T10:10:00.337Z,555
2018-09-08T10:11:09.631Z,560
2018-09-08T10:12:19.165Z,565
2018-09-08T10:13:29.006Z,565
2018-09-08T10:14:38.887Z,560
2018-09-08T10:15:48.462Z,570
2018-09-08T10:16:58.330Z,580
2018-09-08T10:18:08.466Z,595
2018-09-08T10:19:18.311Z,600
2018-09-08T10:20:27.921Z,605
2018-09-08T10:21:37.768Z,610
2018-09-08T10:22:47.894Z,600
2018-09-08T10:24:14.458Z,595
2018-09-08T10:25:24.303Z,590
2018-09-08T10:26:34.419Z,580
2018-09-08T10:27:43.781Z,575
2018-09-08T10:28:53.627Z,585
2018-09-08T10:30:05.066Z,595
2018-09-08T10:31:14.962Z,605
2018-09-08T10:32:26.334Z,605
2018-09-08T10:33:36.482Z,605
2018-09-08T10:34:46.638Z,600
2018-09-08T10:35:55.899Z,595
2018-09-08T10:37:05.776Z,580
2018-09-08T10:38:15.900Z,570
2018-09-08T10:39:26.014Z,540
2018-09-08T10:40:35.997Z,525
2018-09-08T10:41:45.848Z,510
2018-09-08T10:42:55.901Z,485
2018-09-08T10:44:05.498Z,475
2018-09-08T10:45:15.344Z,470
2018-09-08T10:46:25.457Z,495
2018-09-08T10:47:34.759Z,510
2018-09-08T10:48:44.872Z,525
2018-09-08T10:49:54.174Z,555
2018-09-08T10:51:04.041Z,555
2018-09-08T10:52:13.950Z,555
2018-09-08T10:53:23.528Z,535
2018-09-08T10:54:33.656Z,545
2018-09-08T10:55:43.499Z,540
2018-09-08T10:56:53.080Z,540
2018-09-08T10:58:02.937Z,550
2018-09-08T10:59:12.213Z,550
2018-09-08T11:00:21.786Z,525
2018-09-08T11:01:32.564Z,515
2018-09-08T11:02:44.663Z,520
2018-09-08T11:03:54.756Z,510
2018-09-08T11:05:04.062Z,500
2018-09-08T11:06:13.095Z,500
2018-09-08T11:07:22.949Z,500
2018-09-08T11:08:33.075Z,530
2018-09-08T11:09:43.227Z,540
2018-09-08T11:10:53.374Z,510
2018-09-08T11:12:03.222Z,550
2018-09-08T11:13:12.799Z,540
2018-09-08T11:14:22.158Z,560
2018-09-08T11:15:32.486Z,535
2018-09-08T11:16:42.334Z,540
2018-09-08T11:17:51.649Z,520
2018-09-08T11:19:02.208Z,510
2018-09-08T11:20:12.061Z,535
2018-09-08T11:21:21.903Z,480
2018-09-08T11:22:31.488Z,495
2018-09-08T11:23:41.334Z,495
2018-09-08T11:24:51.185Z,500
2018-09-08T11:26:01.033Z,455
2018-09-08T11:27:10.886Z,450
2018-09-08T11:28:20.729Z,485
2018-09-08T11:29:30.299Z,590
2018-09-08T11:30:40.098Z,605
2018-09-08T11:31:49.965Z,560
2018-09-08T11:33:00.082Z,535
2018-09-08T11:34:09.656Z,625
2018-09-08T11:35:18.973Z,525
2018-09-08T11:36:29.104Z,485
2018-09-08T11:37:38.682Z,470
2018-09-08T11:38:48.807Z,530
2018-09-08T11:39:58.385Z,650
2018-09-08T11:41:07.967Z,720
2018-09-08T11:42:18.135Z,650
2018-09-08T11:43:28.264Z,650
2018-09-08T11:44:38.419Z,595
2018-09-08T11:45:48.267Z,620
2018-09-08T11:46:58.126Z,640
2018-09-08T11:48:07.976Z,505
2018-09-08T11:49:18.142Z,405
2018-09-08T11:50:27.716Z,405
2018-09-08T11:51:37.859Z,415
2018-09-08T11:52:47.193Z,400
2018-09-08T11:53:57.044Z,405
2018-09-08T11:55:06.626Z,440
2018-09-08T11:56:16.738Z,520
2018-09-08T11:57:26.316Z,535
2018-09-08T11:58:35.351Z,535
2018-09-08T11:59:45.595Z,525
2018-09-08T12:00:55.447Z,565
2018-09-08T12:02:05.101Z,730
2018-09-08T12:03:15.238Z,725
2018-09-08T12:04:25.095Z,635
2018-09-08T12:05:35.213Z,540
2018-09-08T12:06:45.068Z,520
2018-09-08T12:07:54.924Z,515
2018-09-08T12:09:04.746Z,530
2018-09-08T12:10:14.319Z,565
2018-09-08T12:11:23.897Z,605
2018-09-08T12:12:33.750Z,540
2018-09-08T12:13:43.329Z,500
2018-09-08T12:14:52.914Z,510
2018-09-08T12:16:02.765Z,370
2018-09-08T12:17:12.339Z,325
2018-09-08T12:18:22.187Z,320
2018-09-08T12:19:31.778Z,310
2018-09-08T12:20:41.628Z,280
2018-09-08T12:21:51.473Z,265
2018-09-08T12:23:00.510Z,280
2018-09-08T12:24:09.869Z,320
2018-09-08T12:25:19.716Z,385
2018-09-08T12:26:29.565Z,445
2018-09-08T12:27:39.408Z,440
2018-09-08T12:28:49.254Z,420
2018-09-08T12:29:58.019Z,415
2018-09-08T12:31:08.486Z,440
2018-09-08T12:32:18.067Z,515
2018-09-08T12:33:27.375Z,790
2018-09-08T12:34:36.926Z,975
2018-09-08T12:35:46.776Z,745
2018-09-08T12:36:56.083Z,555
2018-09-08T12:38:05.117Z,690
2018-09-08T12:39:14.148Z,610
2018-09-08T12:40:23.996Z,520
2018-09-08T12:41:33.567Z,495
2018-09-08T12:42:43.140Z,565
2018-09-08T12:43:52.444Z,605
2018-09-08T12:45:02.293Z,815
2018-09-08T12:46:12.143Z,745
2018-09-08T12:47:22.035Z,740
2018-09-08T12:48:31.606Z,1125
2018-09-08T12:49:41.455Z,905
2018-09-08T12:50:51.579Z,580
2018-09-08T12:52:01.165Z,615
2018-09-08T12:53:11.061Z,740
2018-09-08T12:54:20.653Z,700
2018-09-08T12:55:30.511Z,655
2018-09-08T12:56:40.368Z,635
2018-09-08T12:57:50.218Z,670
2018-09-08T12:58:59.916Z,595
2018-09-08T13:00:09.169Z,515
2018-09-08T13:01:19.015Z,470
2018-09-08T13:02:28.621Z,495
2018-09-08T13:03:37.924Z,580
2018-09-08T13:04:47.773Z,715
2018-09-08T13:05:57.915Z,820
2018-09-08T13:07:07.767Z,870
2018-09-08T13:08:17.621Z,915
2018-09-08T13:09:27.735Z,825
2018-09-08T13:10:37.581Z,785
2018-09-08T13:11:47.701Z,745
2018-09-08T13:12:57.818Z,745
2018-09-08T13:14:07.758Z,770
2018-09-08T13:15:17.307Z,775
2018-09-08T13:16:27.478Z,780
2018-09-08T13:17:37.058Z,755
2018-09-08T13:18:46.635Z,705
2018-09-08T13:19:56.757Z,675
2018-09-08T13:21:06.332Z,615
2018-09-08T13:22:15.373Z,650
2018-09-08T13:23:25.231Z,700
2018-09-08T13:24:34.807Z,620
2018-09-08T13:25:44.669Z,615
2018-09-08T13:26:54.245Z,670
2018-09-08T13:28:03.609Z,685
2018-09-08T13:29:13.731Z,625
2018-09-08T13:30:23.348Z,520
2018-09-08T13:31:33.464Z,540
2018-09-08T13:32:42.770Z,625
2018-09-08T13:33:53.284Z,725
2018-09-08T13:35:03.421Z,775
2018-09-08T13:36:12.995Z,805
2018-09-08T13:37:23.112Z,765
2018-09-08T13:38:32.684Z,745
2018-09-08T13:39:43.158Z,715
2018-09-08T13:40:52.931Z,650
2018-09-08T13:42:02.510Z,585
2018-09-08T13:43:12.088Z,695
2018-09-08T13:44:21.932Z,760
2018-09-08T13:45:32.047Z,1430
2018-09-08T13:46:41.896Z,910
2018-09-08T13:47:51.745Z,925
2018-09-08T13:49:00.790Z,1160
2018-09-08T13:50:10.389Z,2190
2018-09-08T13:51:20.717Z,1325
2018-09-08T13:52:30.828Z,805
2018-09-08T13:53:40.414Z,560
2018-09-08T13:54:50.266Z,545
2018-09-08T13:55:59.574Z,635
2018-09-08T13:57:09.836Z,635
2018-09-08T13:58:19.376Z,615
2018-09-08T13:59:29.224Z,600
2018-09-08T14:00:39.354Z,1020
2018-09-08T14:01:49.195Z,1200
2018-09-08T14:02:59.320Z,755
2018-09-08T14:04:09.103Z,895
2018-09-08T14:05:18.972Z,815
2018-09-08T14:06:28.548Z,770
2018-09-08T14:07:38.659Z,1565
2018-09-08T14:08:48.515Z,1680
2018-09-08T14:09:58.364Z,2070
2018-09-08T14:11:08.491Z,3045
2018-09-08T14:12:18.141Z,2825
2018-09-08T14:13:27.719Z,1815
2018-09-08T14:14:36.760Z,905
2018-09-08T14:15:46.340Z,1535
2018-09-08T14:16:55.928Z,935
2018-09-08T14:18:05.784Z,780
2018-09-08T14:19:15.634Z,1285
2018-09-08T14:20:24.997Z,785
2018-09-08T14:21:34.842Z,660
2018-09-08T14:22:44.150Z,1305
2018-09-08T14:23:54.031Z,1015
2018-09-08T14:25:03.592Z,815
2018-09-08T14:26:13.441Z,2395
2018-09-08T14:27:23.289Z,865
2018-09-08T14:28:32.990Z,900
2018-09-08T14:29:42.885Z,2710
2018-09-08T14:30:53.005Z,2600
2018-09-08T14:32:03.123Z,2865
2018-09-08T14:33:13.244Z,3055
2018-09-08T14:34:23.096Z,3180
2018-09-08T14:35:32.954Z,815
2018-09-08T14:36:43.369Z,2870
2018-09-08T14:37:53.323Z,540
2018-09-08T14:39:03.171Z,655
2018-09-08T14:40:13.300Z,3075
2018-09-08T14:41:23.146Z,2885
2018-09-08T14:42:33.272Z,2730
2018-09-08T14:43:43.118Z,2620
2018-09-08T14:44:52.985Z,2640
2018-09-08T14:46:02.874Z,2830
2018-09-08T14:47:12.772Z,2905
2018-09-08T14:48:22.366Z,2715
2018-09-08T14:49:31.690Z,2875
2018-09-08T14:50:41.544Z,2145
2018-09-08T14:51:51.684Z,1130
2018-09-08T14:53:01.815Z,710
2018-09-08T14:54:11.673Z,630
2018-09-08T14:55:21.532Z,605
2018-09-08T14:56:31.157Z,570
2018-09-08T14:57:41.287Z,560
2018-09-08T14:58:51.138Z,580
2018-09-08T15:00:00.455Z,630
2018-09-08T15:01:10.352Z,655
2018-09-08T15:02:19.930Z,680
2018-09-08T15:03:29.523Z,720
2018-09-08T15:04:40.034Z,715
2018-09-08T15:05:50.161Z,865
2018-09-08T15:07:00.011Z,900
2018-09-08T15:08:10.132Z,725
2018-09-08T15:09:19.982Z,760
2018-09-08T15:10:30.129Z,730
2018-09-08T15:11:39.432Z,805
2018-09-08T15:12:49.017Z,685
2018-09-08T15:13:58.595Z,1280
2018-09-08T15:15:08.459Z,2170
2018-09-08T15:16:18.317Z,2350
2018-09-08T15:17:28.168Z,765
2018-09-08T15:18:38.068Z,1540
2018-09-08T15:19:47.652Z,2190
2018-09-08T15:20:57.232Z,2585
2018-09-08T15:22:06.821Z,2635
2018-09-08T15:23:16.401Z,2425
2018-09-08T15:24:26.474Z,2645
2018-09-08T15:25:36.622Z,2120
2018-09-08T15:26:46.481Z,1470
2018-09-08T15:27:56.335Z,1785
2018-09-08T15:29:05.918Z,2100
2018-09-08T15:30:15.509Z,2260
2018-09-08T15:31:25.089Z,2500
2018-09-08T15:32:35.207Z,665
2018-09-08T15:33:45.061Z,630
2018-09-08T15:34:55.197Z,2415
2018-09-08T15:36:05.316Z,2480
2018-09-08T15:37:15.170Z,2515
2018-09-08T15:38:24.755Z,2220
2018-09-08T15:39:34.610Z,2065
2018-09-08T15:40:43.939Z,2270
2018-09-08T15:41:53.792Z,980
2018-09-08T15:43:03.381Z,1665
2018-09-08T15:44:12.963Z,1930
2018-09-08T15:45:22.632Z,1345
2018-09-08T15:46:32.000Z,1380
2018-09-08T15:47:41.585Z,650
2018-09-08T15:48:51.174Z,665
2018-09-08T15:50:01.310Z,510
2018-09-08T15:51:11.164Z,475
2018-09-08T15:52:20.753Z,545
2018-09-08T15:53:30.388Z,465
2018-09-08T15:54:40.249Z,480
2018-09-08T15:55:50.399Z,530
2018-09-08T15:57:00.252Z,510
2018-09-08T15:58:09.928Z,620
2018-09-08T15:59:20.062Z,645
2018-09-08T16:00:30.183Z,380
2018-09-08T16:01:40.033Z,345
2018-09-08T16:02:49.894Z,325
2018-09-08T16:03:59.746Z,320
2018-09-08T16:05:09.599Z,315
2018-09-08T16:06:19.511Z,320
2018-09-08T16:07:29.093Z,330
2018-09-08T16:08:38.398Z,320
2018-09-08T16:09:47.984Z,320
2018-09-08T16:10:57.772Z,320
2018-09-08T16:12:07.360Z,310
2018-09-08T16:13:17.472Z,300
2018-09-08T16:14:27.299Z,290
2018-09-08T16:15:37.166Z,275
2018-09-08T16:16:46.766Z,260
2018-09-08T16:17:56.601Z,250
2018-09-08T16:19:06.600Z,240
2018-09-08T16:20:16.175Z,235